world map with HPB marked

HPB - Airport

This information may not be accurate or current and is not valid for navigation or flight planning. No warranty of fitness for any purpose is made or implied.

flag of Alaskaflag of United States

Donate via PayPal

Additional information is available on the NEW Great Circle Mapper

Location
City:  Hooper Bay, Alaska, United States
ICAO / IATA:PAHP / HPB
FAA:HPB

Details
Type:Airport (Airfield)
Use:Public/Civil
Latitude:61°31'26"N (61.523861)
Longitude:166°08'48"W (-166.146638)
Datum:WGS 1984
Elevation:13 ft (4 m)
Runways:1
Longest:3300 × 75 ft (1006 × 23 m)

Time
Timezone:UTC+25:08 (DST+26:08)
Local Time:

Weather
METAR:PAHP  192156Z AUTO 00000KT 1/2SM OVC002 01/M01 A2961 RMK AO1

Related Locations
Nearby:
Farthest:FAME: 11044 mi / 17773 km
Marion Island, Prince Edward Islands, ZA

Find:

   beyond  
but within

Other Information
Maps:
Links:
Sources:

  

Sectional Chart

Flight Planning
at skyvector.com

 


Great Circle Mapper   Great Circle Mapper
Great Circle Mapper FAQ   Great Circle Mapper FAQ
  Karl's Home Page
KLSē   KLSē Home
   GC on Facebook
Airlines of the World   Airlines of the World
Donate via PayPal


Copyright © 2004-2013, Karl L. Swartz. All rights reserved.
All trademarks mentioned herein belong to their respective owners.

Please see credits for attribution and copyright information.

Karl Swartz <karl@kls2.com>
  Powered by FreeBSD
Valid HTML 4.01!
Labeled with ICRA
hCard Microformat
Geo Microformat